Time;durP1;ratioP1;P1;durP2;ratioP2;P2;SDS_P1;SDS_P2;PMS_P1;PMS_P2;Temp;Humidity;BMP_temperature;BMP_pressure;BME280_temperature;BME280_humidity;BME280_pressure;Samples;Min_cycle;Max_cycle;Signal;HPM_P1;HPM_P2
2022/09/02 00:01:22;;;;;;;4.20;1.40;;;;;;;15.05;52.97;100474.28;5053559;28;20048;-60
2022/09/02 00:03:50;;;;;;;2.83;1.30;;;;;;;14.93;53.25;100473.06;5052764;28;20045;-60
2022/09/02 00:06:19;;;;;;;3.33;1.58;;;;;;;14.95;53.40;100467.09;5064634;28;20354;-60
2022/09/02 00:08:46;;;;;;;4.25;1.67;;;;;;;14.98;53.18;100460.81;5062998;28;20049;-62
2022/09/02 00:11:20;;;;;;;4.22;1.77;;;;;;;14.99;53.63;100462.44;5053078;28;20447;-61
2022/09/02 00:13:48;;;;;;;3.53;1.77;;;;;;;14.93;53.56;100461.00;5058611;28;20057;-60
2022/09/02 00:16:17;;;;;;;4.68;1.50;;;;;;;14.89;53.90;100457.25;5071685;28;20055;-60
2022/09/02 00:18:47;;;;;;;3.90;1.95;;;;;;;14.86;54.15;100461.56;5065801;28;20381;-60
2022/09/02 00:21:15;;;;;;;3.40;1.60;;;;;;;14.82;53.90;100455.84;5053165;28;20059;-59
2022/09/02 00:23:44;;;;;;;5.53;1.80;;;;;;;14.79;54.39;100450.09;5052176;28;20513;-60
2022/09/02 00:26:12;;;;;;;8.15;2.00;;;;;;;14.79;54.09;100452.91;5053268;28;20049;-60
2022/09/02 00:28:40;;;;;;;5.95;2.00;;;;;;;14.77;54.01;100450.44;5053110;28;20049;-60
2022/09/02 00:31:07;;;;;;;7.00;1.90;;;;;;;14.74;54.18;100450.28;5052809;28;20052;-60
2022/09/02 00:33:35;;;;;;;5.05;1.80;;;;;;;14.74;53.92;100448.34;5058004;28;20049;-60
2022/09/02 00:36:05;;;;;;;3.22;1.80;;;;;;;14.73;54.28;100448.66;5052923;28;20052;-60
2022/09/02 00:38:34;;;;;;;4.70;2.00;;;;;;;14.70;54.42;100446.53;5053070;28;20473;-60
2022/09/02 00:41:04;;;;;;;2.85;1.70;;;;;;;14.66;54.01;100446.41;5052460;28;20060;-60
2022/09/02 00:43:43;;;;;;;3.58;1.55;;;;;;;14.65;54.42;100443.94;5052011;28;20067;-59
2022/09/02 00:46:13;;;;;;;5.43;2.00;;;;;;;14.61;54.50;100439.03;5068654;28;20056;-59
2022/09/02 00:48:43;;;;;;;;;;;;;;;14.55;54.14;100437.59;5073312;28;20045;-60
2022/09/02 00:51:12;;;;;;;3.03;1.67;;;;;;;14.55;54.27;100436.72;5053411;28;19921;-59
2022/09/02 00:53:42;;;;;;;4.20;1.60;;;;;;;14.54;54.42;100443.53;5052105;28;20048;-60
2022/09/02 00:56:11;;;;;;;;;;;;;;;14.51;54.53;100445.03;5053220;28;20053;-59
2022/09/02 00:58:41;;;;;;;3.88;1.80;;;;;;;14.51;54.34;100442.22;5052610;28;19921;-59
2022/09/02 01:01:10;;;;;;;3.40;1.60;;;;;;;14.51;54.72;100433.81;5051975;28;20071;-60
2022/09/02 01:03:40;;;;;;;3.47;1.88;;;;;;;14.51;54.47;100438.56;5053229;28;20071;-60
2022/09/02 01:06:08;;;;;;;2.85;1.40;;;;;;;14.51;55.01;100430.16;5057753;28;20060;-60
2022/09/02 01:08:38;;;;;;;2.60;1.60;;;;;;;14.50;54.98;100428.53;5062489;28;20048;-60
2022/09/02 01:11:05;;;;;;;;;;;;;;;14.44;54.89;100421.50;5060100;28;20052;-60
2022/09/02 01:13:37;;;;;;;4.07;1.73;;;;;;;14.40;54.96;100433.41;5051767;28;19959;-59
2022/09/02 01:16:11;;;;;;;3.55;1.70;;;;;;;14.40;54.86;100426.97;5052332;28;20494;-59
2022/09/02 01:18:39;;;;;;;6.07;1.80;;;;;;;14.40;54.85;100429.75;5052507;28;20060;-59
2022/09/02 01:21:06;;;;;;;4.10;1.52;;;;;;;14.36;54.71;100424.03;5051972;28;20049;-60
2022/09/02 01:23:36;;;;;;;4.82;1.70;;;;;;;14.32;54.96;100425.88;5052959;28;20441;-59
2022/09/02 01:26:06;;;;;;;3.75;1.60;;;;;;;14.31;55.11;100431.81;5062202;28;20053;-60
2022/09/02 01:28:33;;;;;;;2.88;1.65;;;;;;;14.30;55.48;100432.97;5062655;28;20059;-60
2022/09/02 01:31:01;;;;;;;3.13;1.50;;;;;;;14.26;55.13;100423.59;5053320;28;20391;-60
2022/09/02 01:33:29;;;;;;;2.00;1.52;;;;;;;14.24;55.31;100421.16;5052305;28;20478;-60
2022/09/02 01:35:57;;;;;;;2.67;1.60;;;;;;;14.21;55.16;100424.63;5051934;28;20056;-60
2022/09/02 01:38:25;;;;;;;3.20;1.83;;;;;;;14.19;55.42;100419.38;5051093;28;20052;-60
2022/09/02 01:40:54;;;;;;;2.78;1.50;;;;;;;14.18;55.47;100423.34;5052206;28;20052;-60
2022/09/02 01:43:24;;;;;;;3.50;1.40;;;;;;;14.19;54.91;100415.75;5051913;28;20049;-60
2022/09/02 01:45:54;;;;;;;4.85;1.40;;;;;;;14.15;55.34;100418.44;5051528;28;20053;-61
2022/09/02 01:48:21;;;;;;;6.57;1.70;;;;;;;14.14;55.28;100416.78;5050900;28;20053;-60
2022/09/02 01:50:51;;;;;;;3.95;1.50;;;;;;;14.10;55.24;100409.41;5052066;28;20386;-60
2022/09/02 01:53:19;;;;;;;1.70;1.30;;;;;;;14.07;55.25;100416.50;5051439;28;20059;-59
2022/09/02 01:55:47;;;;;;;3.72;1.63;;;;;;;14.07;55.46;100416.50;5051652;28;20045;-59
2022/09/02 01:58:15;;;;;;;4.40;1.45;;;;;;;14.06;55.81;100409.25;5050701;28;20049;-60
2022/09/02 02:00:43;;;;;;;4.10;1.45;;;;;;;14.08;55.57;100406.13;5052026;28;20053;-60
2022/09/02 02:03:10;;;;;;;4.80;1.50;;;;;;;14.02;55.79;100411.09;5051702;28;20056;-60
2022/09/02 02:05:37;;;;;;;2.80;1.50;;;;;;;13.97;55.56;100406.50;5051914;28;20049;-59
2022/09/02 02:08:06;;;;;;;2.63;1.45;;;;;;;13.96;55.60;100406.84;5056390;28;20052;-59
2022/09/02 02:10:33;;;;;;;3.45;1.33;;;;;;;13.95;55.77;100406.03;5072222;28;20056;-60
2022/09/02 02:13:02;;;;;;;3.50;1.50;;;;;;;13.95;55.83;100405.22;5060448;28;20057;-60
2022/09/02 02:15:31;;;;;;;2.60;1.42;;;;;;;13.94;55.81;100403.56;5054750;28;20049;-60
2022/09/02 02:17:58;;;;;;;2.00;1.27;;;;;;;13.91;55.91;100409.84;5054798;28;20064;-60
2022/09/02 02:20:25;;;;;;;2.78;1.60;;;;;;;13.90;56.03;100402.59;5055849;28;20049;-59
2022/09/02 02:22:53;;;;;;;3.97;1.65;;;;;;;13.87;56.17;100403.28;5055508;28;20045;-59
2022/09/02 02:25:21;;;;;;;2.63;1.30;;;;;;;13.85;56.18;100402.78;5055068;28;20049;-59
2022/09/02 02:27:50;;;;;;;3.08;1.52;;;;;;;13.83;55.86;100405.13;5054365;28;20049;-60
2022/09/02 02:30:18;;;;;;;1.53;1.23;;;;;;;13.83;56.27;100399.50;5055299;28;20057;-60
2022/09/02 02:32:47;;;;;;;4.88;1.55;;;;;;;13.77;56.21;100402.53;5055044;28;20061;-60
2022/09/02 02:35:15;;;;;;;1.93;1.20;;;;;;;13.74;56.42;100391.97;5055472;28;20052;-67
2022/09/02 02:37:43;;;;;;;1.58;1.10;;;;;;;13.71;56.22;100409.47;5058880;28;20045;-66
2022/09/02 02:40:11;;;;;;;3.35;1.42;;;;;;;13.72;56.63;100399.09;5054866;28;20405;-67
2022/09/02 02:42:39;;;;;;;2.45;1.25;;;;;;;13.71;56.45;100398.28;5055364;28;20057;-66
2022/09/02 02:45:08;;;;;;;2.40;1.30;;;;;;;13.64;56.39;100397.97;5055067;28;20409;-66
2022/09/02 02:47:38;;;;;;;2.40;1.38;;;;;;;13.62;56.89;100408.66;5059270;28;20454;-66
2022/09/02 02:50:09;;;;;;;;;;;;;;;13.58;56.85;100402.91;5056546;28;20049;-66
2022/09/02 02:52:36;;;;;;;2.67;1.50;;;;;;;13.58;57.44;100404.91;5055282;28;19928;-67
2022/09/02 02:55:05;;;;;;;2.78;1.60;;;;;;;13.55;57.11;100402.78;5054341;28;20044;-67
2022/09/02 02:57:33;;;;;;;2.37;1.30;;;;;;;13.57;57.09;100401.28;5053935;28;20064;-67
2022/09/02 03:00:05;;;;;;;1.95;1.13;;;;;;;13.58;56.65;100391.72;5053496;28;20520;-67
2022/09/02 03:02:33;;;;;;;3.35;1.50;;;;;;;13.61;57.10;100395.84;5054547;28;20052;-67
2022/09/02 03:05:00;;;;;;;2.97;1.50;;;;;;;13.58;57.00;100393.72;5054477;28;20390;-67
2022/09/02 03:07:29;;;;;;;3.97;1.40;;;;;;;13.60;56.97;100397.81;5053004;28;20057;-67
2022/09/02 03:09:56;;;;;;;3.47;1.40;;;;;;;13.61;57.19;100393.06;5054829;28;20053;-67
2022/09/02 03:12:24;;;;;;;3.65;1.30;;;;;;;13.61;56.90;100395.84;5054408;28;20053;-67
2022/09/02 03:14:51;;;;;;;4.82;1.55;;;;;;;13.61;57.10;100393.06;5054731;28;20049;-67
2022/09/02 03:17:19;;;;;;;2.42;1.15;;;;;;;13.62;57.23;100386.28;5053264;28;20056;-67
2022/09/02 03:19:47;;;;;;;1.88;1.40;;;;;;;13.62;57.07;100393.88;5054632;28;20049;-67
2022/09/02 03:22:14;;;;;;;2.97;1.40;;;;;;;13.65;57.14;100395.97;5053966;28;20458;-67
2022/09/02 03:24:43;;;;;;;6.50;1.95;;;;;;;13.64;57.46;100391.53;5053690;28;20048;-67
2022/09/02 03:27:10;;;;;;;2.17;1.77;;;;;;;13.64;57.09;100394.34;5052124;28;20509;-67
2022/09/02 03:29:37;;;;;;;3.05;1.92;;;;;;;13.67;57.60;100388.91;5054597;28;20056;-67
2022/09/02 03:32:05;;;;;;;4.10;2.35;;;;;;;13.71;57.12;100387.06;5054115;28;20052;-67
2022/09/02 03:34:33;;;;;;;4.22;2.28;;;;;;;13.69;57.04;100386.59;5053662;28;20053;-67
2022/09/02 03:37:00;;;;;;;2.85;1.42;;;;;;;13.69;57.08;100389.38;5053309;28;20056;-67
2022/09/02 03:39:27;;;;;;;2.65;1.48;;;;;;;13.70;57.45;100387.41;5054230;28;20060;-67
2022/09/02 03:41:56;;;;;;;3.08;1.33;;;;;;;13.73;57.53;100384.75;5053770;28;20080;-67
2022/09/02 03:44:23;;;;;;;2.88;1.48;;;;;;;13.72;57.31;100383.09;5054032;28;20059;-67
2022/09/02 03:46:51;;;;;;;3.78;1.50;;;;;;;13.72;57.90;100385.09;5053963;28;20053;-67
2022/09/02 03:49:18;;;;;;;2.63;1.50;;;;;;;13.74;57.73;100383.59;5073929;28;20060;-67
2022/09/02 03:51:45;;;;;;;2.53;1.70;;;;;;;13.78;57.65;100380.94;5058121;28;20059;-67
2022/09/02 03:54:13;;;;;;;5.40;1.58;;;;;;;13.80;57.76;100378.63;5053999;28;20052;-65
2022/09/02 03:56:40;;;;;;;2.00;1.50;;;;;;;13.72;57.93;100380.31;5052810;28;20056;-67
2022/09/02 03:59:09;;;;;;;2.72;1.50;;;;;;;13.80;57.33;100375.81;5033929;28;20406;-67
2022/09/02 04:01:36;;;;;;;2.43;1.50;;;;;;;13.80;57.24;100385.03;5044649;28;20057;-67
2022/09/02 04:04:04;;;;;;;2.90;1.50;;;;;;;13.82;57.58;100387.50;5054005;28;20471;-67
2022/09/02 04:06:32;;;;;;;2.60;1.30;;;;;;;13.74;57.69;100371.56;5053323;28;20410;-67
2022/09/02 04:08:59;;;;;;;3.17;1.70;;;;;;;13.82;57.62;100381.91;5071344;28;20075;-67
2022/09/02 04:11:27;;;;;;;1.88;1.17;;;;;;;13.83;57.62;100377.94;5066050;28;20489;-68
2022/09/02 04:13:54;;;;;;;1.73;1.17;;;;;;;13.85;57.39;100380.41;5053635;28;20052;-68
2022/09/02 04:23:07;;;;;;;3.17;1.40;;;;;;;13.72;57.84;100382.28;5051109;28;20044;-67
2022/09/02 04:25:39;;;;;;;1.73;1.20;;;;;;;13.68;57.93;100370.94;5052804;28;20405;-67
2022/09/02 04:28:06;;;;;;;2.45;1.50;;;;;;;13.67;57.46;100369.31;5064810;28;20413;-67
2022/09/02 04:30:34;;;;;;;3.83;1.70;;;;;;;13.70;57.80;100374.22;5069837;28;20044;-67
2022/09/02 04:33:01;;;;;;;1.95;1.30;;;;;;;13.75;57.34;100368.44;5053050;28;20053;-67
2022/09/02 04:35:28;;;;;;;4.30;1.58;;;;;;;13.81;57.39;100369.03;5052904;28;20347;-67
2022/09/02 04:37:56;;;;;;;3.92;1.70;;;;;;;13.85;57.63;100369.19;5051801;28;20496;-67
2022/09/02 04:40:25;;;;;;;2.67;1.58;;;;;;;13.89;57.63;100365.38;5052958;28;20131;-67
2022/09/02 04:42:52;;;;;;;3.20;1.60;;;;;;;13.95;56.99;100368.81;5052578;28;20048;-67
2022/09/02 04:45:20;;;;;;;3.10;1.73;;;;;;;13.99;57.00;100367.78;5052379;28;20048;-67
2022/09/02 04:47:47;;;;;;;2.80;1.40;;;;;;;14.04;57.10;100368.75;5053552;28;20048;-66
2022/09/02 04:50:15;;;;;;;3.67;1.60;;;;;;;14.10;56.96;100358.97;5052382;28;20059;-66
2022/09/02 04:52:42;;;;;;;2.33;1.30;;;;;;;14.13;56.65;100367.53;5052358;28;20378;-67
2022/09/02 04:55:10;;;;;;;2.25;1.40;;;;;;;14.17;56.78;100365.69;5052706;28;20592;-67
2022/09/02 04:57:39;;;;;;;2.10;1.27;;;;;;;14.25;56.86;100369.56;5057209;28;20060;-66
2022/09/02 05:00:09;;;;;;;3.95;1.60;;;;;;;14.29;56.26;100372.50;5052809;28;20079;-67
2022/09/02 05:02:36;;;;;;;3.55;1.20;;;;;;;14.39;56.31;100366.50;5052192;28;20052;-67
2022/09/02 05:05:04;;;;;;;8.73;1.50;;;;;;;14.47;56.25;100367.56;5052411;28;20540;-67
2022/09/02 05:07:31;;;;;;;3.97;1.60;;;;;;;14.48;56.10;100369.22;5052169;28;20429;-67
2022/09/02 05:09:59;;;;;;;2.20;1.42;;;;;;;14.48;56.02;100363.59;5052480;28;20413;-67
2022/09/02 05:12:27;;;;;;;4.25;1.38;;;;;;;14.59;56.01;100365.69;5058827;28;20085;-67
2022/09/02 05:14:59;;;;;;;2.30;1.70;;;;;;;14.61;56.11;100366.16;5054008;28;20413;-66
2022/09/02 05:17:26;;;;;;;3.33;1.33;;;;;;;14.75;55.66;100362.22;5049975;28;20049;-66
2022/09/02 05:19:54;;;;;;;2.90;1.50;;;;;;;14.79;55.56;100361.19;5046365;28;20486;-67
2022/09/02 05:22:21;;;;;;;4.10;1.40;;;;;;;14.90;55.37;100367.16;5048048;28;20235;-67
2022/09/02 05:24:48;;;;;;;4.10;1.25;;;;;;;15.00;55.13;100360.31;5048194;28;20057;-67
2022/09/02 05:27:15;;;;;;;4.13;1.45;;;;;;;15.13;55.27;100361.16;5051098;28;20053;-67
2022/09/02 05:29:43;;;;;;;2.72;1.48;;;;;;;14.65;56.75;100369.06;5049562;28;20049;-46
2022/09/02 05:32:12;;;;;;;3.35;1.38;;;;;;;14.85;57.82;100355.38;5051823;28;20075;-48
2022/09/02 05:34:39;;;;;;;3.83;1.50;;;;;;;14.88;56.43;100372.31;5050698;28;20055;-46
2022/09/02 05:37:07;;;;;;;3.42;1.65;;;;;;;15.10;56.23;100373.06;5050915;28;20405;-48
2022/09/02 05:39:34;;;;;;;3.00;1.35;;;;;;;15.17;55.30;100367.69;5050542;28;20065;-48
2022/09/02 05:42:02;;;;;;;5.78;1.80;;;;;;;15.39;54.98;100358.84;5051680;28;20056;-47
2022/09/02 05:44:30;;;;;;;2.75;1.30;;;;;;;15.52;55.00;100367.28;5048644;28;20053;-66
2022/09/02 05:46:57;;;;;;;4.97;1.75;;;;;;;15.82;54.23;100365.88;5065036;28;20053;-67
2022/09/02 05:49:26;;;;;;;2.80;1.50;;;;;;;16.01;53.93;100365.25;5057596;28;20500;-67
2022/09/02 05:51:56;;;;;;;6.45;1.73;;;;;;;16.21;53.65;100360.66;5051601;28;20063;-67
2022/09/02 05:54:25;;;;;;;5.90;1.60;;;;;;;16.40;52.60;100350.78;5051332;28;20041;-67
2022/09/02 05:56:54;;;;;;;3.00;1.50;;;;;;;16.52;52.48;100350.69;5050638;28;20060;-67
2022/09/02 05:59:22;;;;;;;5.05;1.40;;;;;;;16.64;52.22;100355.47;5055981;28;20497;-64
2022/09/02 06:01:50;;;;;;;2.75;1.25;;;;;;;16.70;52.13;100356.84;5066606;28;20417;-67
2022/09/02 06:04:17;;;;;;;2.75;1.20;;;;;;;16.86;51.89;100351.28;5071384;28;20060;-67
2022/09/02 06:06:46;;;;;;;2.65;1.75;;;;;;;17.00;52.02;100354.47;5056496;28;20037;-67
2022/09/02 06:09:17;;;;;;;5.47;1.58;;;;;;;17.04;52.05;100346.94;5064124;28;20055;-66
2022/09/02 06:11:48;;;;;;;8.27;2.05;;;;;;;17.13;51.69;100352.41;5050483;28;20053;-66
2022/09/02 06:14:16;;;;;;;3.75;2.10;;;;;;;17.14;51.70;100347.63;5051502;28;20049;-67
2022/09/02 06:16:44;;;;;;;4.40;1.63;;;;;;;17.20;51.72;100354.59;5051199;28;20052;-67
2022/09/02 06:19:11;;;;;;;3.67;1.58;;;;;;;17.27;51.47;100345.53;5051610;28;20048;-67
2022/09/02 06:21:41;;;;;;;4.28;1.65;;;;;;;17.34;51.43;100354.94;5061170;28;20052;-67
2022/09/02 06:24:12;;;;;;;4.70;1.80;;;;;;;17.40;51.31;100347.06;5056649;28;20067;-67
2022/09/02 06:26:41;;;;;;;5.45;1.55;;;;;;;17.35;51.31;100345.34;5047724;28;20512;-67
2022/09/02 06:29:09;;;;;;;3.53;1.80;;;;;;;17.39;51.33;100343.44;5050620;28;20057;-67
2022/09/02 06:31:37;;;;;;;6.03;2.17;;;;;;;17.37;51.48;100351.44;5050939;28;20064;-67
2022/09/02 06:34:05;;;;;;;5.47;2.00;;;;;;;17.41;51.58;100346.69;5050984;28;20393;-66
2022/09/02 06:36:32;;;;;;;5.32;2.00;;;;;;;17.42;51.69;100353.16;5050116;28;20049;-67
2022/09/02 06:39:01;;;;;;;4.57;2.00;;;;;;;17.47;51.66;100357.69;5051412;28;20052;-67
2022/09/02 06:41:32;;;;;;;4.07;2.00;;;;;;;17.43;51.64;100358.41;5052029;28;20056;-63
2022/09/02 06:44:01;;;;;;;5.70;2.00;;;;;;;17.53;51.64;100354.22;5060981;28;20488;-67
2022/09/02 06:46:31;;;;;;;5.15;2.55;;;;;;;17.61;51.42;100349.59;5064733;28;20508;-67
2022/09/02 06:48:59;;;;;;;4.40;2.10;;;;;;;17.69;51.75;100357.03;5051210;28;20064;-67
2022/09/02 06:51:28;;;;;;;5.00;1.98;;;;;;;17.80;51.90;100352.44;5050686;28;20045;-66
2022/09/02 06:53:55;;;;;;;4.78;2.30;;;;;;;17.97;51.66;100356.09;5050464;28;20045;-66
2022/09/02 06:56:23;;;;;;;4.32;2.30;;;;;;;18.15;51.47;100354.50;5051101;28;20057;-66
2022/09/02 06:58:52;;;;;;;8.23;2.38;;;;;;;18.22;50.87;100349.00;5051174;28;20466;-66
2022/09/02 07:01:20;;;;;;;4.47;2.17;;;;;;;18.45;51.07;100351.09;5052129;28;20083;-65
2022/09/02 07:06:35;;;;;;;5.53;2.17;;;;;;;19.01;49.27;100350.63;5079005;28;20079;-66
2022/09/02 07:09:04;;;;;;;5.38;2.17;;;;;;;19.26;48.48;100339.78;5054690;28;20405;-66
2022/09/02 07:11:31;;;;;;;4.70;1.92;;;;;;;19.42;48.32;100342.47;5053462;28;20379;-66
2022/09/02 07:14:00;;;;;;;4.85;2.03;;;;;;;19.68;48.16;100340.88;5034982;28;20070;-66
2022/09/02 07:16:28;;;;;;;14.63;3.00;;;;;;;19.87;47.46;100340.78;5070409;28;20053;-66
2022/09/02 07:18:56;;;;;;;5.88;2.38;;;;;;;20.11;47.39;100346.38;5056166;28;20053;-66
2022/09/02 07:21:23;;;;;;;6.53;2.25;;;;;;;20.27;46.73;100341.34;5056701;28;20052;-66
2022/09/02 07:23:51;;;;;;;5.32;1.73;;;;;;;20.47;45.58;100339.16;5060553;28;20056;-66
2022/09/02 07:26:18;;;;;;;3.42;1.40;;;;;;;20.66;43.94;100338.19;5074483;28;20477;-66
2022/09/02 07:28:45;;;;;;;4.38;1.15;;;;;;;20.85;42.91;100338.03;5060486;28;20132;-66
2022/09/02 07:31:16;;;;;;;3.83;1.25;;;;;;;20.98;42.46;100335.72;5054659;28;20071;-66
2022/09/02 07:33:44;;;;;;;2.45;1.40;;;;;;;21.11;42.45;100338.28;5061868;28;20057;-66
2022/09/02 07:36:13;;;;;;;4.50;1.45;;;;;;;21.18;42.43;100335.50;5054505;28;20409;-68
2022/09/02 07:38:41;;;;;;;2.83;1.60;;;;;;;21.44;41.58;100335.38;5053744;28;20049;-66
2022/09/02 07:41:11;;;;;;;3.00;1.20;;;;;;;21.57;40.67;100337.91;5053009;28;20402;-66
2022/09/02 07:43:39;;;;;;;3.22;1.65;;;;;;;21.76;40.25;100334.00;5053470;28;20056;-66
2022/09/02 07:46:07;;;;;;;3.08;1.45;;;;;;;21.81;40.29;100334.44;5053665;28;20057;-66
2022/09/02 07:48:36;;;;;;;3.65;1.27;;;;;;;21.91;39.55;100337.75;5053624;28;20055;-66
2022/09/02 07:51:04;;;;;;;2.28;1.45;;;;;;;21.84;39.34;100330.00;5053111;28;20398;-63
2022/09/02 07:53:32;;;;;;;1.83;1.13;;;;;;;21.92;39.50;100330.84;5038688;28;20049;-66
2022/09/02 07:56:00;;;;;;;3.80;1.50;;;;;;;22.05;38.89;100332.16;5053479;28;20056;-66
2022/09/02 07:58:28;;;;;;;2.10;1.30;;;;;;;22.12;39.24;100328.53;5053397;28;20060;-66
2022/09/02 08:00:56;;;;;;;2.83;1.30;;;;;;;22.00;39.26;100326.84;5053867;28;20056;-66
2022/09/02 08:03:24;;;;;;;2.10;1.27;;;;;;;21.97;38.63;100328.47;5069654;28;20053;-66
2022/09/02 08:05:54;;;;;;;3.22;1.27;;;;;;;22.30;38.50;100329.50;5053551;28;20063;-66
2022/09/02 08:08:21;;;;;;;4.90;1.70;;;;;;;22.50;38.36;100332.81;5053726;28;20057;-66
2022/09/02 08:10:50;;;;;;;6.80;1.50;;;;;;;22.56;37.97;100325.53;5061456;28;20052;-65
2022/09/02 08:13:18;;;;;;;3.08;1.20;;;;;;;22.66;38.03;100330.44;5073361;28;20378;-65
2022/09/02 08:15:45;;;;;;;2.20;1.40;;;;;;;22.94;37.22;100326.03;5055218;28;20064;-66
2022/09/02 08:18:13;;;;;;;2.22;1.10;;;;;;;23.16;37.79;100331.78;5053341;28;20053;-65
2022/09/02 08:20:40;;;;;;;4.85;1.20;;;;;;;23.42;36.54;100331.38;5052229;28;20053;-66
2022/09/02 08:23:10;;;;;;;3.75;1.30;;;;;;;23.66;36.48;100328.94;5053403;28;20057;-65
2022/09/02 08:25:37;;;;;;;6.32;1.88;;;;;;;23.95;35.29;100323.25;5052661;28;20053;-65
2022/09/02 08:28:05;;;;;;;2.20;1.20;;;;;;;24.23;35.10;100322.34;5053290;28;20048;-65
2022/09/02 08:30:33;;;;;;;3.42;1.17;;;;;;;24.32;35.63;100322.72;5055475;28;20053;-65
2022/09/02 08:33:00;;;;;;;2.85;1.48;;;;;;;24.68;35.22;100323.41;5053133;28;20049;-66
2022/09/02 08:35:28;;;;;;;5.18;1.38;;;;;;;24.99;34.83;100332.19;5053133;28;20060;-64
2022/09/02 08:37:57;;;;;;;4.80;1.30;;;;;;;25.23;34.28;100326.75;5052747;28;20050;-65
2022/09/02 08:40:36;;;;;;;2.58;1.10;;;;;;;25.48;33.70;100321.66;5057425;28;20056;-63
2022/09/02 08:43:07;;;;;;;3.40;1.27;;;;;;;25.72;32.85;100325.50;5073216;28;20053;-65
2022/09/02 08:45:37;;;;;;;3.10;1.20;;;;;;;26.06;32.86;100321.09;5064814;28;20053;-65
2022/09/02 08:48:09;;;;;;;3.97;1.55;;;;;;;26.00;32.96;100315.06;5052850;28;20060;-65
2022/09/02 08:50:39;;;;;;;3.20;1.20;;;;;;;26.25;32.46;100319.69;5052007;28;20041;-65
2022/09/02 08:53:15;;;;;;;3.60;1.33;;;;;;;26.35;32.46;100309.34;5052724;28;20473;-65
2022/09/02 08:55:52;;;;;;;2.05;1.25;;;;;;;26.39;31.73;100319.50;5052187;28;20053;-65
2022/09/02 08:58:23;;;;;;;4.13;1.40;;;;;;;26.47;31.18;100311.66;5052891;28;20058;-65
2022/09/02 09:01:02;;;;;;;4.28;1.50;;;;;;;26.63;30.67;100313.94;5055253;28;20052;-65
2022/09/02 09:03:37;;;;;;;2.78;1.20;;;;;;;26.99;30.35;100316.28;5052317;28;20049;-64
2022/09/02 09:06:16;;;;;;;2.65;1.25;;;;;;;26.51;30.90;100304.66;5052187;28;20513;-65
2022/09/02 09:08:51;;;;;;;3.70;1.23;;;;;;;26.46;30.79;100304.34;5052220;28;20358;-65
2022/09/02 09:11:28;;;;;;;3.72;1.90;;;;;;;25.95;31.21;100309.00;5061431;28;20080;-65
2022/09/02 09:14:20;;;;;;;3.08;1.45;;;;;;;25.63;31.79;100298.69;5052120;28;20049;-65
2022/09/02 09:16:55;;;;;;;3.53;1.40;;;;;;;25.58;31.61;100302.03;5052231;28;20049;-65
2022/09/02 09:19:34;;;;;;;1.95;1.40;;;;;;;25.69;31.76;100297.81;5052224;28;20401;-64
2022/09/02 09:22:02;;;;;;;2.85;1.52;;;;;;;26.08;31.38;100295.78;5062201;28;20053;-67
2022/09/02 09:24:36;;;;;;;2.63;1.38;;;;;;;26.51;31.25;100296.06;5050829;28;20061;-64
2022/09/02 09:27:11;;;;;;;3.50;1.42;;;;;;;26.98;30.13;100288.91;5051918;28;20049;-64
2022/09/02 09:29:38;;;;;;;1.95;1.20;;;;;;;27.18;29.89;100286.16;5051087;28;20041;-64
2022/09/02 09:32:14;;;;;;;2.72;1.30;;;;;;;27.25;29.76;100292.59;5051678;28;20060;-65
2022/09/02 09:34:58;;;;;;;4.68;1.40;;;;;;;27.63;29.32;100278.03;5051882;28;20056;-64
2022/09/02 09:37:32;;;;;;;3.97;1.50;;;;;;;27.66;29.04;100273.50;5051979;28;20052;-65
2022/09/02 09:39:59;;;;;;;3.33;1.45;;;;;;;28.12;28.42;100274.69;5050676;28;20049;-64
2022/09/02 09:42:34;;;;;;;8.85;1.63;;;;;;;27.73;28.82;100276.22;5051788;28;20056;-64
2022/09/02 09:45:17;;;;;;;3.92;1.20;;;;;;;27.79;28.50;100268.75;5051882;28;20421;-64
2022/09/02 09:47:44;;;;;;;2.75;1.23;;;;;;;28.08;28.67;100273.94;5051548;28;20055;-64
2022/09/02 09:50:16;;;;;;;2.08;1.30;;;;;;;27.75;28.37;100268.00;5055752;28;20059;-64
2022/09/02 09:52:44;;;;;;;2.60;1.40;;;;;;;28.62;27.06;100249.88;5064583;28;20052;-64
2022/09/02 09:55:18;;;;;;;4.32;1.33;;;;;;;28.96;27.11;100258.09;5052204;28;20071;-64
2022/09/02 09:57:49;;;;;;;3.50;1.15;;;;;;;29.88;26.32;100251.25;5051249;28;20051;-64
2022/09/02 10:00:25;;;;;;;2.42;1.13;;;;;;;30.14;25.56;100254.19;5050578;28;20060;-64
2022/09/02 10:02:56;;;;;;;2.92;1.30;;;;;;;30.82;24.14;100245.56;5051713;28;20053;-64
2022/09/02 10:05:33;;;;;;;2.35;1.40;;;;;;;31.44;22.70;100245.22;5052013;28;20421;-64
2022/09/02 10:08:03;;;;;;;3.67;1.50;;;;;;;31.74;22.34;100249.47;5051291;28;20508;-64
2022/09/02 10:10:32;;;;;;;3.75;1.45;;;;;;;32.33;21.84;100244.00;5057936;28;20404;-62
2022/09/02 10:13:18;;;;;;;2.92;1.63;;;;;;;32.52;21.35;100247.81;5067200;28;20052;-64
2022/09/02 10:16:00;;;;;;;4.05;1.20;;;;;;;31.79;22.55;100246.00;5051250;28;20493;-64
2022/09/02 10:18:35;;;;;;;2.67;1.48;;;;;;;32.40;20.44;100251.56;5051849;28;20060;-64
2022/09/02 10:21:13;;;;;;;2.85;1.45;;;;;;;32.28;20.07;100241.75;5052040;28;20413;-64
2022/09/02 10:23:52;;;;;;;3.13;1.40;;;;;;;32.31;19.86;100238.72;5051301;28;20053;-64
2022/09/02 10:26:30;;;;;;;2.60;1.20;;;;;;;32.43;19.23;100233.34;5051960;28;20057;-64
2022/09/02 10:29:28;;;;;;;3.63;1.30;;;;;;;32.10;19.27;100233.78;5050706;28;20053;-66
2022/09/02 10:32:09;;;;;;;4.35;1.20;;;;;;;31.81;19.01;100242.66;5051695;28;20052;-65
2022/09/02 10:34:51;;;;;;;3.25;1.40;;;;;;;31.86;19.04;100231.34;5051715;28;20064;-63
2022/09/02 10:37:22;;;;;;;8.68;1.80;;;;;;;31.10;19.19;100230.28;5055743;28;20508;-63
2022/09/02 10:40:09;;;;;;;1.60;1.00;;;;;;;32.37;18.53;100215.84;5054580;28;20049;-63
2022/09/02 10:42:48;;;;;;;1.75;1.08;;;;;;;32.85;18.24;100218.50;5055595;28;20059;-63
2022/09/02 10:45:25;;;;;;;4.72;1.50;;;;;;;32.83;18.18;100212.41;5055424;28;20401;-64
2022/09/02 10:48:02;;;;;;;7.93;1.88;;;;;;;34.00;16.47;100219.31;5054223;28;20572;-63
2022/09/02 10:50:39;;;;;;;1.80;1.00;;;;;;;33.09;17.27;100218.75;5054630;28;20053;-64
2022/09/02 10:53:22;;;;;;;2.58;1.20;;;;;;;33.11;17.46;100210.41;5055516;28;20429;-63
2022/09/02 10:55:57;;;;;;;2.03;1.10;;;;;;;33.88;16.62;100212.44;5054838;28;20052;-64
2022/09/02 10:58:42;;;;;;;1.83;1.30;;;;;;;34.96;16.26;100202.31;5054703;28;20409;-63
2022/09/02 11:01:18;;;;;;;4.13;1.55;;;;;;;34.85;15.49;100202.06;5055709;28;20052;-64
2022/09/02 11:04:01;;;;;;;2.85;1.40;;;;;;;36.34;14.55;100218.63;5055289;28;20053;-63
2022/09/02 11:06:32;;;;;;;3.08;1.40;;;;;;;36.28;14.32;100209.03;5054695;28;20048;-63
2022/09/02 11:09:06;;;;;;;2.05;1.50;;;;;;;37.45;13.94;100202.66;5063811;28;20049;-63
2022/09/02 11:11:39;;;;;;;2.17;1.20;;;;;;;37.39;13.42;100204.72;5072086;28;20052;-63
2022/09/02 11:14:19;;;;;;;3.50;1.83;;;;;;;37.92;13.46;100191.88;5074975;28;20485;-63
2022/09/02 11:16:52;;;;;;;2.33;1.45;;;;;;;37.27;13.84;100208.78;5055843;28;20063;-63
2022/09/02 11:19:27;;;;;;;1.50;1.20;;;;;;;39.10;12.27;100183.38;5065597;28;20119;-63
2022/09/02 11:22:01;;;;;;;2.75;1.40;;;;;;;39.54;12.19;100196.56;5056594;28;20482;-63
2022/09/02 11:24:34;;;;;;;1.45;1.30;;;;;;;39.31;12.20;100194.84;5054325;28;20053;-63
2022/09/02 11:27:11;;;;;;;2.35;0.90;;;;;;;37.09;13.35;100193.19;5054400;28;20053;-63
2022/09/02 11:29:53;;;;;;;1.85;0.93;;;;;;;36.88;13.90;100191.56;5053003;28;20415;-63
2022/09/02 11:32:29;;;;;;;1.60;0.98;;;;;;;35.81;14.37;100192.59;5054339;28;20525;-63
2022/09/02 11:34:59;;;;;;;3.28;0.93;;;;;;;34.87;15.48;100187.91;5054236;28;20057;-63
2022/09/02 11:37:34;;;;;;;2.38;1.10;;;;;;;34.11;16.23;100184.94;5053435;28;20064;-63
2022/09/02 11:40:05;;;;;;;2.55;1.20;;;;;;;33.90;16.77;100173.09;5073955;28;20044;-63
2022/09/02 11:42:50;;;;;;;3.53;1.20;;;;;;;35.12;15.90;100181.66;5056604;28;20072;-63
2022/09/02 11:45:39;;;;;;;2.10;1.40;;;;;;;36.55;14.79;100172.31;5054081;28;20514;-64
2022/09/02 11:48:29;;;;;;;1.60;1.33;;;;;;;38.02;14.01;100177.16;5061219;28;20061;-63
2022/09/02 11:51:12;;;;;;;2.17;1.40;;;;;;;37.31;13.84;100175.28;5035301;28;20065;-63